createdAt,value
2023-04-10T00:00:10.760Z,80.30
2023-04-10T00:01:05.741Z,80.39
2023-04-10T00:02:01.115Z,80.41
2023-04-10T00:02:56.136Z,80.46
2023-04-10T00:03:51.214Z,80.42
2023-04-10T00:04:46.283Z,80.34
2023-04-10T00:05:41.350Z,80.16
2023-04-10T00:06:36.700Z,80.46
2023-04-10T00:07:31.739Z,80.49
2023-04-10T00:08:26.912Z,80.49
2023-04-10T00:09:22.097Z,80.69
2023-04-10T00:10:17.016Z,80.70
2023-04-10T00:11:12.096Z,80.44
2023-04-10T00:12:07.338Z,80.22
2023-04-10T00:13:02.328Z,80.26
2023-04-10T00:13:57.431Z,80.45
2023-04-10T00:14:52.494Z,80.58
2023-04-10T00:15:47.573Z,80.35
2023-04-10T00:16:42.760Z,80.50
2023-04-10T00:17:37.730Z,80.39
2023-04-10T00:18:32.824Z,80.35
2023-04-10T00:19:27.866Z,80.34
2023-04-10T00:20:22.997Z,80.17
2023-04-10T00:21:18.233Z,79.96
2023-04-10T00:22:13.110Z,79.71
2023-04-10T00:23:08.160Z,79.56
2023-04-10T00:24:03.245Z,79.44
2023-04-10T00:24:58.332Z,79.40
2023-04-10T00:25:53.626Z,79.66
2023-04-10T00:26:48.492Z,79.78
2023-04-10T00:27:43.591Z,79.76
2023-04-10T00:28:38.700Z,79.80
2023-04-10T00:29:33.827Z,79.94
2023-04-10T00:30:28.914Z,80.13
2023-04-10T00:31:24.247Z,80.24
2023-04-10T00:32:19.090Z,80.24
2023-04-10T00:33:14.084Z,80.21
2023-04-10T00:34:09.061Z,80.52
2023-04-10T00:35:04.204Z,80.39
2023-04-10T00:35:59.350Z,80.12
2023-04-10T00:36:54.191Z,79.88
2023-04-10T00:37:49.249Z,79.87
2023-04-10T00:38:44.395Z,79.88
2023-04-10T00:39:39.462Z,79.67
2023-04-10T00:40:34.763Z,79.57
2023-04-10T00:41:33.727Z,79.57
2023-04-10T00:42:28.814Z,79.56
2023-04-10T00:43:23.854Z,79.65
2023-04-10T00:44:18.986Z,79.78
2023-04-10T00:45:14.259Z,79.99
2023-04-10T00:46:09.398Z,80.07
2023-04-10T00:47:04.402Z,80.16
2023-04-10T00:47:59.678Z,80.24
2023-04-10T00:48:54.762Z,80.25
2023-04-10T00:49:50.008Z,80.26
2023-04-10T00:50:45.357Z,80.35
2023-04-10T00:51:40.124Z,80.56
2023-04-10T00:52:35.167Z,80.96
2023-04-10T00:53:30.292Z,80.78
2023-04-10T00:54:25.254Z,80.56
2023-04-10T00:55:20.491Z,80.47
2023-04-10T00:56:16.795Z,80.37
2023-04-10T00:57:11.865Z,80.44
2023-04-10T00:58:06.874Z,80.54
2023-04-10T00:59:02.481Z,80.70
2023-04-10T00:59:57.176Z,80.83
2023-04-10T01:00:52.220Z,80.94
2023-04-10T01:01:47.276Z,81.05
2023-04-10T01:02:42.359Z,81.21
2023-04-10T01:03:37.490Z,81.28
2023-04-10T01:04:32.670Z,81.47
2023-04-10T01:05:27.469Z,81.67
2023-04-10T01:06:22.461Z,81.69
2023-04-10T01:07:17.816Z,81.63
2023-04-10T01:08:13.020Z,81.64
2023-04-10T01:09:08.252Z,81.63
2023-04-10T01:10:04.234Z,81.68
2023-04-10T01:10:59.223Z,81.72
2023-04-10T01:11:55.051Z,81.78
2023-04-10T01:12:50.248Z,81.82
2023-04-10T01:13:45.614Z,81.94
2023-04-10T01:14:41.225Z,82.07
2023-04-10T01:15:36.701Z,82.00
2023-04-10T01:16:31.668Z,81.95
2023-04-10T01:17:28.228Z,82.03
2023-04-10T01:18:23.319Z,81.68
2023-04-10T01:19:19.137Z,81.45
2023-04-10T01:20:14.286Z,81.35
2023-04-10T01:21:09.441Z,81.44
2023-04-10T01:22:05.230Z,81.49
2023-04-10T01:23:00.477Z,81.56
2023-04-10T01:23:56.683Z,81.66
2023-04-10T01:24:51.504Z,81.98
2023-04-10T01:25:46.915Z,81.89
2023-04-10T01:26:42.746Z,81.70
2023-04-10T01:27:37.970Z,81.53
2023-04-10T01:28:33.374Z,81.42
2023-04-10T01:29:29.487Z,81.38
2023-04-10T01:30:24.745Z,81.49
2023-04-10T01:31:20.558Z,81.56
2023-04-10T01:32:15.765Z,81.66
2023-04-10T01:33:11.132Z,81.88
2023-04-10T01:34:06.868Z,82.01
2023-04-10T01:35:02.060Z,81.94
2023-04-10T01:35:58.166Z,81.82
2023-04-10T01:36:52.971Z,81.63
2023-04-10T01:37:48.369Z,81.34
2023-04-10T01:38:44.026Z,81.30
2023-04-10T01:39:39.295Z,81.29
2023-04-10T01:40:34.373Z,81.15
2023-04-10T01:41:31.020Z,81.28
2023-04-10T01:42:26.125Z,81.30
2023-04-10T01:43:21.949Z,81.16
2023-04-10T01:44:17.158Z,81.32
2023-04-10T01:45:12.306Z,81.49
2023-04-10T01:46:08.291Z,81.53
2023-04-10T01:47:03.301Z,81.52
2023-04-10T01:47:59.162Z,81.54
2023-04-10T01:48:54.231Z,81.52
2023-04-10T01:49:49.618Z,81.66
2023-04-10T01:50:45.447Z,81.83
2023-04-10T01:51:40.592Z,81.84
2023-04-10T01:52:35.815Z,81.83
2023-04-10T01:53:31.033Z,81.69
2023-04-10T01:54:26.865Z,81.65
2023-04-10T01:55:22.078Z,81.63
2023-04-10T01:56:17.664Z,81.68
2023-04-10T01:57:13.055Z,81.76
2023-04-10T01:58:08.317Z,81.81
2023-04-10T01:59:04.120Z,81.89
2023-04-10T01:59:59.370Z,82.00
2023-04-10T02:00:54.632Z,82.08
2023-04-10T02:01:50.450Z,82.16
2023-04-10T02:02:45.740Z,82.28
2023-04-10T02:03:41.015Z,82.40
2023-04-10T02:04:37.410Z,82.50
2023-04-10T02:05:32.513Z,82.55
2023-04-10T02:06:28.338Z,82.65
2023-04-10T02:07:23.553Z,82.74
2023-04-10T02:08:18.710Z,82.77
2023-04-10T02:09:14.479Z,82.78
2023-04-10T02:10:09.727Z,82.71
2023-04-10T02:11:05.091Z,82.68
2023-04-10T02:12:00.210Z,82.72
2023-04-10T02:12:55.427Z,82.71
2023-04-10T02:13:50.681Z,82.72
2023-04-10T02:14:46.016Z,82.83
2023-04-10T02:15:42.154Z,82.93
2023-04-10T02:16:37.234Z,83.00
2023-04-10T02:17:32.585Z,83.08
2023-04-10T02:18:28.390Z,83.24
2023-04-10T02:19:23.664Z,83.27
2023-04-10T02:20:18.789Z,83.36
2023-04-10T02:21:14.180Z,83.40
2023-04-10T02:22:09.130Z,83.40
2023-04-10T02:23:04.386Z,83.38
2023-04-10T02:24:00.616Z,83.24
2023-04-10T02:24:55.996Z,83.11
2023-04-10T02:25:51.001Z,83.00
2023-04-10T02:26:50.450Z,83.02
2023-04-10T02:27:45.623Z,83.03
2023-04-10T02:28:40.885Z,83.02
2023-04-10T02:29:36.091Z,83.05
2023-04-10T02:30:31.203Z,83.08
2023-04-10T02:31:26.193Z,83.13
2023-04-10T02:32:21.322Z,83.21
2023-04-10T02:33:16.395Z,83.24
2023-04-10T02:34:11.524Z,83.29
2023-04-10T02:35:06.713Z,83.26
2023-04-10T02:36:02.004Z,83.30
2023-04-10T02:36:56.786Z,83.26
2023-04-10T02:37:52.038Z,83.33
2023-04-10T02:38:46.932Z,83.59
2023-04-10T02:39:42.028Z,83.39
2023-04-10T02:40:37.108Z,83.04
2023-04-10T02:41:32.238Z,82.83
2023-04-10T02:42:27.291Z,82.80
2023-04-10T02:43:22.409Z,82.72
2023-04-10T02:44:17.510Z,82.63
2023-04-10T02:45:12.626Z,82.67
2023-04-10T02:46:08.036Z,82.61
2023-04-10T02:47:03.194Z,82.64
2023-04-10T02:47:59.081Z,82.83
2023-04-10T02:48:54.188Z,82.99
2023-04-10T02:49:50.088Z,83.00
2023-04-10T02:50:45.437Z,82.90
2023-04-10T02:51:40.697Z,83.02
2023-04-10T02:52:36.398Z,82.99
2023-04-10T02:53:31.603Z,82.78
2023-04-10T02:54:26.976Z,82.54
2023-04-10T02:55:23.053Z,82.55
2023-04-10T02:56:18.478Z,82.62
2023-04-10T02:57:14.139Z,82.57
2023-04-10T02:58:09.384Z,82.54
2023-04-10T02:59:04.721Z,82.59
2023-04-10T03:00:00.411Z,82.58
2023-04-10T03:00:55.666Z,82.70
2023-04-10T03:01:51.705Z,82.85
2023-04-10T03:02:46.855Z,83.05
2023-04-10T03:03:42.230Z,83.12
2023-04-10T03:04:37.847Z,83.17
2023-04-10T03:05:32.974Z,83.17
2023-04-10T03:06:28.484Z,83.25
2023-04-10T03:07:24.435Z,83.29
2023-04-10T03:08:19.701Z,83.36
2023-04-10T03:09:15.529Z,83.42
2023-04-10T03:10:10.586Z,83.50
2023-04-10T03:11:05.851Z,83.57
2023-04-10T03:12:01.812Z,83.71
2023-04-10T03:12:56.960Z,83.82
2023-04-10T03:13:52.876Z,83.86
2023-04-10T03:14:47.913Z,83.79
2023-04-10T03:15:43.327Z,83.81
2023-04-10T03:16:39.283Z,83.83
2023-04-10T03:17:34.307Z,83.91
2023-04-10T03:18:29.534Z,84.12
2023-04-10T03:19:25.865Z,84.23
2023-04-10T03:20:21.115Z,84.30
2023-04-10T03:21:17.076Z,84.31
2023-04-10T03:22:12.098Z,84.22
2023-04-10T03:23:07.166Z,84.19
2023-04-10T03:24:03.065Z,84.12
2023-04-10T03:24:58.133Z,83.92
2023-04-10T03:25:54.117Z,84.36
2023-04-10T03:26:49.091Z,84.52
2023-04-10T03:27:44.361Z,84.28
2023-04-10T03:28:40.149Z,84.03
2023-04-10T03:29:35.457Z,83.74
2023-04-10T03:30:30.644Z,83.54
2023-04-10T03:31:27.056Z,83.44
2023-04-10T03:32:22.267Z,83.57
2023-04-10T03:33:18.163Z,83.72
2023-04-10T03:34:13.167Z,83.96
2023-04-10T03:35:08.562Z,83.93
2023-04-10T03:36:04.425Z,83.72
2023-04-10T03:36:59.517Z,83.47
2023-04-10T03:37:55.333Z,83.35
2023-04-10T03:38:50.597Z,83.28
2023-04-10T03:39:46.000Z,83.33
2023-04-10T03:40:41.918Z,83.33
2023-04-10T03:41:36.861Z,83.37
2023-04-10T03:42:32.103Z,83.48
2023-04-10T03:43:28.298Z,83.40
2023-04-10T03:44:23.584Z,83.29
2023-04-10T03:45:18.796Z,83.15
2023-04-10T03:46:14.216Z,83.20
2023-04-10T03:47:10.582Z,83.17
2023-04-10T03:48:05.829Z,83.33
2023-04-10T03:49:01.216Z,83.50
2023-04-10T03:49:57.303Z,83.73
2023-04-10T03:50:52.573Z,83.86
2023-04-10T03:51:48.570Z,83.77
2023-04-10T03:52:43.487Z,83.67
2023-04-10T03:53:38.889Z,83.57
2023-04-10T03:54:34.620Z,83.74
2023-04-10T03:55:29.865Z,83.87
2023-04-10T03:56:25.828Z,83.75
2023-04-10T03:57:20.928Z,83.62
2023-04-10T03:58:16.285Z,83.52
2023-04-10T03:59:12.059Z,83.79
2023-04-10T04:00:07.106Z,83.77
2023-04-10T04:01:02.559Z,83.70
2023-04-10T04:01:58.566Z,83.53
2023-04-10T04:02:54.006Z,83.36
2023-04-10T04:03:49.017Z,83.32
2023-04-10T04:04:44.558Z,83.39
2023-04-10T04:05:39.349Z,83.34
2023-04-10T04:06:35.587Z,83.54
2023-04-10T04:07:30.696Z,83.59
2023-04-10T04:08:25.944Z,83.50
2023-04-10T04:09:21.695Z,83.58
2023-04-10T04:10:16.949Z,83.68
2023-04-10T04:11:12.346Z,84.01
2023-04-10T04:12:07.569Z,84.12
2023-04-10T04:13:02.546Z,84.10
2023-04-10T04:13:57.651Z,83.98
2023-04-10T04:14:52.631Z,84.25
2023-04-10T04:15:47.887Z,84.27
2023-04-10T04:16:42.871Z,84.09
2023-04-10T04:17:43.755Z,83.88
2023-04-10T04:18:38.837Z,83.81
2023-04-10T04:19:34.086Z,83.86
2023-04-10T04:20:29.481Z,83.84
2023-04-10T04:21:24.444Z,83.87
2023-04-10T04:22:19.618Z,84.19
2023-04-10T04:24:43.145Z,85.08
2023-04-10T04:25:38.288Z,84.66
2023-04-10T04:26:35.389Z,84.54
2023-04-10T04:27:28.774Z,84.43
2023-04-10T04:28:24.068Z,84.48
2023-04-10T04:29:19.308Z,84.63
2023-04-10T04:30:14.791Z,84.76
2023-04-10T04:31:09.906Z,84.81
2023-04-10T04:32:05.224Z,84.76
2023-04-10T04:33:00.370Z,84.71
2023-04-10T04:33:55.800Z,84.77
2023-04-10T04:34:51.018Z,84.80
2023-04-10T04:35:46.243Z,84.73
2023-04-10T04:36:41.509Z,84.62
2023-04-10T04:37:36.898Z,84.47
2023-04-10T04:38:32.194Z,84.35
2023-04-10T04:39:27.593Z,84.46
2023-04-10T04:40:22.833Z,84.44
2023-04-10T04:41:20.499Z,84.37
2023-04-10T04:42:13.712Z,84.50
2023-04-10T04:43:09.125Z,84.57
2023-04-10T04:44:04.474Z,84.37
2023-04-10T04:45:00.117Z,84.15
2023-04-10T04:45:55.452Z,84.00
2023-04-10T04:46:50.589Z,83.89
2023-04-10T04:47:45.868Z,83.65
2023-04-10T04:48:41.244Z,83.58
2023-04-10T04:49:36.596Z,83.65
2023-04-10T04:50:32.172Z,83.71
2023-04-10T04:51:27.263Z,83.77
2023-04-10T04:52:22.656Z,83.80
2023-04-10T04:53:17.934Z,83.80
2023-04-10T04:54:13.337Z,83.92
2023-04-10T04:55:08.860Z,83.97
2023-04-10T04:56:04.077Z,84.03
2023-04-10T04:56:59.284Z,84.08
2023-04-10T04:57:54.579Z,84.09
2023-04-10T04:58:49.917Z,84.16
2023-04-10T04:59:45.497Z,83.99
2023-04-10T05:00:40.624Z,83.85
2023-04-10T05:01:36.184Z,83.74
2023-04-10T05:02:31.426Z,83.67
2023-04-10T05:03:26.804Z,83.72
2023-04-10T05:04:22.240Z,83.80
2023-04-10T05:05:17.901Z,83.91
2023-04-10T05:06:12.941Z,84.01
2023-04-10T05:07:08.421Z,84.04
2023-04-10T05:08:03.728Z,84.09
2023-04-10T05:08:59.222Z,84.20
2023-04-10T05:09:54.684Z,84.21
2023-04-10T05:10:49.917Z,84.24
2023-04-10T05:11:45.184Z,84.29
2023-04-10T05:12:40.644Z,84.28
2023-04-10T05:13:35.952Z,84.30
2023-04-10T05:14:31.566Z,84.34
2023-04-10T05:15:26.860Z,84.35
2023-04-10T05:16:22.279Z,84.42
2023-04-10T05:17:17.553Z,84.44
2023-04-10T05:18:12.951Z,84.44
2023-04-10T05:19:08.224Z,84.54
2023-04-10T05:20:03.713Z,84.59
2023-04-10T05:20:58.988Z,84.61
2023-04-10T05:21:54.457Z,84.54
2023-04-10T05:22:49.785Z,84.47
2023-04-10T05:23:45.188Z,84.46
2023-04-10T05:24:40.547Z,84.48
2023-04-10T05:25:36.159Z,84.41
2023-04-10T05:26:31.533Z,84.37
2023-04-10T05:27:27.045Z,84.30
2023-04-10T05:28:22.516Z,84.19
2023-04-10T05:29:18.048Z,84.12
2023-04-10T05:30:13.553Z,83.98
2023-04-10T05:31:08.954Z,83.91
2023-04-10T05:32:04.203Z,83.95
2023-04-10T05:32:59.726Z,83.95
2023-04-10T05:33:55.054Z,83.88
2023-04-10T05:34:50.735Z,83.82
2023-04-10T05:35:46.127Z,83.83
2023-04-10T05:36:41.522Z,83.74
2023-04-10T05:37:36.833Z,83.75
2023-04-10T05:38:32.464Z,83.79
2023-04-10T05:39:27.850Z,83.80
2023-04-10T05:40:23.518Z,83.82
2023-04-10T05:41:18.838Z,83.78
2023-04-10T05:42:14.397Z,83.81
2023-04-10T05:43:09.750Z,83.78
2023-04-10T05:44:05.371Z,83.72
2023-04-10T05:45:00.907Z,83.67
2023-04-10T05:45:56.172Z,83.61
2023-04-10T05:46:51.608Z,83.61
2023-04-10T05:47:46.958Z,83.50
2023-04-10T05:48:42.436Z,83.35
2023-04-10T05:49:38.146Z,83.23
2023-04-10T05:50:33.419Z,83.10
2023-04-10T05:51:28.900Z,83.08
2023-04-10T05:52:24.239Z,83.04
2023-04-10T05:53:19.626Z,82.96
2023-04-10T05:54:15.138Z,82.95
2023-04-10T05:55:10.458Z,82.80
2023-04-10T05:56:05.965Z,82.71
2023-04-10T05:57:01.468Z,82.67
2023-04-10T05:57:56.806Z,82.63
2023-04-10T05:58:52.538Z,82.45
2023-04-10T05:59:47.594Z,82.30
2023-04-10T06:00:43.243Z,82.08
2023-04-10T06:01:38.689Z,81.87
2023-04-10T06:02:34.245Z,81.79
2023-04-10T06:03:29.807Z,81.76
2023-04-10T06:04:24.920Z,81.58
2023-04-10T06:05:20.301Z,81.36
2023-04-10T06:06:15.592Z,81.12
2023-04-10T06:07:11.117Z,81.04
2023-04-10T06:08:06.552Z,81.00
2023-04-10T06:09:02.184Z,80.89
2023-04-10T06:09:57.372Z,80.77
2023-04-10T06:10:52.932Z,80.68
2023-04-10T06:11:48.262Z,80.53
2023-04-10T06:12:43.927Z,80.32
2023-04-10T06:13:39.423Z,80.08
2023-04-10T06:14:34.674Z,79.95
2023-04-10T06:15:30.024Z,79.95
2023-04-10T06:16:25.548Z,79.81
2023-04-10T06:17:21.112Z,79.63
2023-04-10T06:18:16.663Z,79.55
2023-04-10T06:19:12.288Z,79.31
2023-04-10T06:20:07.689Z,79.12
2023-04-10T06:21:03.046Z,78.94
2023-04-10T06:21:58.552Z,78.66
2023-04-10T06:22:54.056Z,78.43
2023-04-10T06:23:49.358Z,78.30
2023-04-10T06:24:44.125Z,77.92
2023-04-10T06:25:39.269Z,77.60
2023-04-10T06:26:34.335Z,77.24
2023-04-10T06:27:34.052Z,76.96
2023-04-10T06:28:29.705Z,76.80
2023-04-10T06:29:24.838Z,76.86
2023-04-10T06:30:20.623Z,76.81
2023-04-10T06:31:16.040Z,76.63
2023-04-10T06:32:11.404Z,76.39
2023-04-10T06:33:08.121Z,76.12
2023-04-10T06:34:03.363Z,75.84
2023-04-10T06:34:59.159Z,75.42
2023-04-10T06:35:54.584Z,75.04
2023-04-10T06:36:49.968Z,74.79
2023-04-10T06:37:46.055Z,74.73
2023-04-10T06:38:41.297Z,74.38
2023-04-10T06:39:37.071Z,73.85
2023-04-10T06:40:32.602Z,73.59
2023-04-10T06:41:27.941Z,73.33
2023-04-10T06:42:23.901Z,73.29
2023-04-10T06:43:19.422Z,73.65
2023-04-10T06:44:14.653Z,73.76
2023-04-10T06:45:11.292Z,73.37
2023-04-10T06:46:06.768Z,72.77
2023-04-10T06:47:02.784Z,72.24
2023-04-10T06:47:58.162Z,71.88
2023-04-10T06:48:53.658Z,71.66
2023-04-10T06:49:49.262Z,71.82
2023-04-10T06:50:44.589Z,71.71
2023-04-10T06:51:40.515Z,71.98
2023-04-10T06:52:35.712Z,71.90
2023-04-10T06:53:31.217Z,71.93
2023-04-10T06:54:27.004Z,71.77
2023-04-10T06:55:22.532Z,71.32
2023-04-10T06:56:17.878Z,70.92
2023-04-10T06:57:14.218Z,70.68
2023-04-10T06:58:09.836Z,70.11
2023-04-10T06:59:05.616Z,69.79
2023-04-10T07:00:00.904Z,69.80
2023-04-10T07:00:56.434Z,69.47
2023-04-10T07:01:52.234Z,68.97
2023-04-10T07:02:47.918Z,68.52
2023-04-10T07:03:43.562Z,67.71
2023-04-10T07:04:38.919Z,67.86
2023-04-10T07:05:34.260Z,68.62
2023-04-10T07:06:30.055Z,68.79
2023-04-10T07:07:25.432Z,68.55
2023-04-10T07:08:21.133Z,68.29
2023-04-10T07:09:17.184Z,68.07
2023-04-10T07:10:12.513Z,68.65
2023-04-10T07:11:08.340Z,69.48
2023-04-10T07:12:03.789Z,70.01
2023-04-10T07:12:59.429Z,70.24
2023-04-10T07:13:54.959Z,69.99
2023-04-10T07:14:50.354Z,69.62
2023-04-10T07:15:46.201Z,69.07
2023-04-10T07:16:41.449Z,68.65
2023-04-10T07:17:37.147Z,68.77
2023-04-10T07:18:32.807Z,68.82
2023-04-10T07:19:28.269Z,68.67
2023-04-10T07:20:23.669Z,68.86
2023-04-10T07:21:19.953Z,68.54
2023-04-10T07:22:15.486Z,67.88
2023-04-10T07:23:11.314Z,67.14
2023-04-10T07:24:06.748Z,67.09
2023-04-10T07:25:02.308Z,66.72
2023-04-10T07:25:58.059Z,66.97
2023-04-10T07:26:53.467Z,67.59
2023-04-10T07:27:48.828Z,67.36
2023-04-10T07:28:44.233Z,66.89
2023-04-10T07:29:40.069Z,66.95
2023-04-10T07:30:35.484Z,66.85
2023-04-10T07:31:30.936Z,66.97
2023-04-10T07:32:26.993Z,66.19
2023-04-10T07:33:22.169Z,65.77
2023-04-10T07:34:17.867Z,65.51
2023-04-10T07:35:13.325Z,65.79
2023-04-10T07:36:08.832Z,65.74
2023-04-10T07:37:04.671Z,65.76
2023-04-10T07:38:00.035Z,65.79
2023-04-10T07:38:55.667Z,65.49
2023-04-10T07:39:52.188Z,65.03
2023-04-10T07:40:47.485Z,65.29
2023-04-10T07:41:43.199Z,65.65
2023-04-10T07:42:38.604Z,65.01
2023-04-10T07:43:34.069Z,64.91
2023-04-10T07:44:30.016Z,65.16
2023-04-10T07:45:25.578Z,65.09
2023-04-10T07:46:21.055Z,65.42
2023-04-10T07:47:16.689Z,65.82
2023-04-10T07:48:12.023Z,66.25
2023-04-10T07:49:08.920Z,66.31
2023-04-10T07:50:04.284Z,65.92
2023-04-10T07:50:59.749Z,64.82
2023-04-10T07:51:55.146Z,64.01
2023-04-10T07:52:50.742Z,63.61
2023-04-10T07:53:45.738Z,63.30
2023-04-10T07:54:40.772Z,63.39
2023-04-10T07:55:35.761Z,63.17
2023-04-10T07:56:30.816Z,63.23
2023-04-10T07:57:25.824Z,62.97
2023-04-10T07:58:21.013Z,62.88
2023-04-10T07:59:15.854Z,61.87
2023-04-10T08:00:10.927Z,61.09
2023-04-10T08:01:05.959Z,61.02
2023-04-10T08:02:01.148Z,61.40
2023-04-10T08:02:56.486Z,61.91
2023-04-10T08:03:51.446Z,62.06
2023-04-10T08:04:46.510Z,62.19
2023-04-10T08:05:41.565Z,62.49
2023-04-10T08:06:36.581Z,62.09
2023-04-10T08:07:31.640Z,61.22
2023-04-10T08:08:27.262Z,60.43
2023-04-10T08:09:22.594Z,59.79
2023-04-10T08:10:18.081Z,59.46
2023-04-10T08:11:14.099Z,59.87
2023-04-10T08:12:09.479Z,61.01
2023-04-10T08:13:05.365Z,61.48
2023-04-10T08:14:00.589Z,61.32
2023-04-10T08:14:56.157Z,61.43
2023-04-10T08:15:52.146Z,60.97
2023-04-10T08:16:47.676Z,60.10
2023-04-10T08:17:43.113Z,60.08
2023-04-10T08:18:39.540Z,60.08
2023-04-10T08:19:36.254Z,60.86
2023-04-10T08:20:30.804Z,60.96
2023-04-10T08:21:26.268Z,60.49
2023-04-10T08:22:21.879Z,60.62
2023-04-10T08:23:20.846Z,60.42
2023-04-10T08:24:13.280Z,60.23
2023-04-10T08:25:08.900Z,59.79
2023-04-10T08:26:04.402Z,59.43
2023-04-10T08:26:59.850Z,59.30
2023-04-10T08:27:56.098Z,59.36
2023-04-10T08:28:51.431Z,59.24
2023-04-10T08:29:46.921Z,58.81
2023-04-10T08:30:43.281Z,58.12
2023-04-10T08:31:38.725Z,56.96
2023-04-10T08:32:34.766Z,57.02
2023-04-10T08:33:30.124Z,56.68
2023-04-10T08:34:25.576Z,55.85
2023-04-10T08:35:21.293Z,55.41
2023-04-10T08:36:19.636Z,55.76
2023-04-10T08:37:12.629Z,56.20
2023-04-10T08:38:14.056Z,56.13
2023-04-10T08:39:04.507Z,55.97
2023-04-10T08:39:59.311Z,55.50
2023-04-10T08:40:54.679Z,55.87
2023-04-10T08:41:50.055Z,55.71
2023-04-10T08:42:46.485Z,55.02
2023-04-10T08:43:41.969Z,55.24
2023-04-10T08:44:37.864Z,55.06
2023-04-10T08:45:33.263Z,55.55
2023-04-10T08:46:28.803Z,56.02
2023-04-10T08:47:24.662Z,56.81
2023-04-10T08:48:20.072Z,57.25
2023-04-10T08:49:15.852Z,57.15
2023-04-10T08:50:11.175Z,57.04
2023-04-10T08:51:08.790Z,56.71
2023-04-10T08:52:02.299Z,56.00
2023-04-10T08:52:57.877Z,55.31
2023-04-10T08:53:53.277Z,55.56
2023-04-10T08:54:49.535Z,54.72
2023-04-10T08:55:45.050Z,54.35
2023-04-10T08:56:40.436Z,53.63
2023-04-10T08:57:36.271Z,52.38
2023-04-10T08:58:31.512Z,51.78
2023-04-10T08:59:26.949Z,51.26
2023-04-10T09:00:23.554Z,50.36
2023-04-10T09:01:18.176Z,51.13
2023-04-10T09:02:13.701Z,51.33
2023-04-10T09:03:10.033Z,51.78
2023-04-10T09:04:05.514Z,52.08
2023-04-10T09:05:00.848Z,52.10
2023-04-10T09:05:57.198Z,51.90
2023-04-10T09:06:52.505Z,51.87
2023-04-10T09:07:48.323Z,51.72
2023-04-10T09:08:43.728Z,51.49
2023-04-10T09:09:39.117Z,51.30
2023-04-10T09:10:35.093Z,50.88
2023-04-10T09:11:30.498Z,49.47
2023-04-10T09:12:26.491Z,49.72
2023-04-10T09:13:21.755Z,49.26
2023-04-10T09:14:17.204Z,48.74
2023-04-10T09:15:12.630Z,49.31
2023-04-10T09:16:08.084Z,49.42
2023-04-10T09:17:03.624Z,49.86
2023-04-10T09:17:59.024Z,49.40
2023-04-10T09:18:53.823Z,48.30
2023-04-10T09:19:53.181Z,48.62
2023-04-10T09:20:48.578Z,50.15
2023-04-10T09:21:44.106Z,48.93
2023-04-10T09:22:39.703Z,47.87
2023-04-10T09:23:36.328Z,48.28
2023-04-10T09:24:31.722Z,48.55
2023-04-10T09:25:27.198Z,48.53
2023-04-10T09:26:22.589Z,48.67
2023-04-10T09:27:17.880Z,48.51
2023-04-10T09:28:12.748Z,48.43
2023-04-10T09:29:07.901Z,47.81
2023-04-10T09:30:02.940Z,48.18
2023-04-10T09:30:57.959Z,48.71
2023-04-10T09:31:53.026Z,47.73
2023-04-10T09:32:48.331Z,46.63
2023-04-10T09:33:43.100Z,47.00
2023-04-10T09:34:41.337Z,47.35
2023-04-10T09:35:36.328Z,47.94
2023-04-10T09:36:31.376Z,48.04
2023-04-10T09:37:26.521Z,46.50
2023-04-10T09:38:21.549Z,47.41
2023-04-10T09:39:16.584Z,46.88
2023-04-10T09:40:11.721Z,45.87
2023-04-10T09:41:06.703Z,47.53
2023-04-10T09:42:01.948Z,47.96
2023-04-10T09:42:56.784Z,46.38
2023-04-10T09:43:53.514Z,46.10
2023-04-10T09:44:48.780Z,45.30
2023-04-10T09:45:44.601Z,44.38
2023-04-10T09:46:40.070Z,44.23
2023-04-10T09:47:35.538Z,44.95
2023-04-10T09:48:31.213Z,45.76
2023-04-10T09:49:26.762Z,45.87
2023-04-10T09:50:22.804Z,44.02
2023-04-10T09:51:18.042Z,43.89
2023-04-10T09:52:13.427Z,44.38
2023-04-10T09:53:09.239Z,45.52
2023-04-10T09:54:04.474Z,46.13
2023-04-10T09:54:59.899Z,46.71
2023-04-10T09:55:56.121Z,46.96
2023-04-10T09:56:51.704Z,46.91
2023-04-10T09:57:47.810Z,45.51
2023-04-10T09:58:43.103Z,44.40
2023-04-10T09:59:38.614Z,43.79
2023-04-10T10:00:34.153Z,43.63
2023-04-10T10:01:29.801Z,43.20
2023-04-10T10:02:26.209Z,41.88
2023-04-10T10:03:21.366Z,41.38
2023-04-10T10:04:16.507Z,41.06
2023-04-10T10:05:12.565Z,41.36
2023-04-10T10:06:07.905Z,42.55
2023-04-10T10:07:03.340Z,43.23
2023-04-10T10:07:59.562Z,43.70
2023-04-10T10:08:55.545Z,43.07
2023-04-10T10:09:51.093Z,43.18
2023-04-10T10:10:46.552Z,43.61
2023-04-10T10:11:42.178Z,42.83
2023-04-10T10:12:37.740Z,42.05
2023-04-10T10:13:33.216Z,42.82
2023-04-10T10:14:29.332Z,42.75
2023-04-10T10:15:24.597Z,43.23
2023-04-10T10:16:20.341Z,43.78
2023-04-10T10:17:15.719Z,43.84
2023-04-10T10:18:11.142Z,43.92
2023-04-10T10:19:06.512Z,44.37
2023-04-10T10:20:02.869Z,43.87
2023-04-10T10:20:58.373Z,43.04
2023-04-10T10:21:54.763Z,42.17
2023-04-10T10:22:49.886Z,41.57
2023-04-10T10:25:10.229Z,42.10
2023-04-10T10:26:05.515Z,40.70
2023-04-10T10:27:01.064Z,40.10
2023-04-10T10:27:56.442Z,39.69
2023-04-10T10:28:51.850Z,38.20
2023-04-10T10:29:47.317Z,38.34
2023-04-10T10:30:42.757Z,38.50
2023-04-10T10:31:38.168Z,38.86
2023-04-10T10:32:33.721Z,39.14
2023-04-10T10:33:29.119Z,39.19
2023-04-10T10:34:24.399Z,39.60
2023-04-10T10:35:19.777Z,39.96
2023-04-10T10:36:15.320Z,39.31
2023-04-10T10:37:10.790Z,39.17
2023-04-10T10:38:06.319Z,39.71
2023-04-10T10:39:01.700Z,40.65
2023-04-10T10:39:57.310Z,40.44
2023-04-10T10:40:52.663Z,40.71
2023-04-10T10:41:48.191Z,41.37
2023-04-10T10:42:43.722Z,41.21
2023-04-10T10:43:39.022Z,40.50
2023-04-10T10:44:34.414Z,39.47
2023-04-10T10:45:29.868Z,38.91
2023-04-10T10:46:25.230Z,38.44
2023-04-10T10:47:20.668Z,38.17
2023-04-10T10:48:16.187Z,38.08
2023-04-10T10:49:11.579Z,38.83
2023-04-10T10:50:06.951Z,39.41
2023-04-10T10:51:02.438Z,40.29
2023-04-10T10:51:57.790Z,40.81
2023-04-10T10:52:53.390Z,40.06
2023-04-10T10:53:48.667Z,39.39
2023-04-10T10:55:39.571Z,39.38
2023-04-10T10:56:34.918Z,39.36
2023-04-10T10:57:30.280Z,38.50
2023-04-10T10:58:25.805Z,38.40
2023-04-10T10:59:21.290Z,38.01
2023-04-10T11:00:16.832Z,38.50
2023-04-10T11:01:12.207Z,38.81
2023-04-10T11:02:07.771Z,39.22
2023-04-10T11:03:03.377Z,39.57
2023-04-10T11:03:58.632Z,39.88
2023-04-10T11:04:53.864Z,39.96
2023-04-10T11:05:49.405Z,39.32
2023-04-10T11:06:44.774Z,38.10
2023-04-10T11:07:39.905Z,37.26
2023-04-10T11:08:35.469Z,37.74
2023-04-10T11:09:30.897Z,37.49
2023-04-10T11:10:26.196Z,37.46
2023-04-10T11:11:21.903Z,37.71
2023-04-10T11:12:17.452Z,37.24
2023-04-10T11:13:12.836Z,37.25
2023-04-10T11:14:08.397Z,36.96
2023-04-10T11:15:03.673Z,36.86
2023-04-10T11:15:59.072Z,35.96
2023-04-10T11:16:54.714Z,35.58
2023-04-10T11:17:49.975Z,34.94
2023-04-10T11:18:45.549Z,34.33
2023-04-10T11:19:40.676Z,34.41
2023-04-10T11:20:36.087Z,34.05
2023-04-10T11:21:31.601Z,34.73
2023-04-10T11:22:27.000Z,34.58
2023-04-10T11:23:22.387Z,34.55
2023-04-10T11:24:17.842Z,34.72
2023-04-10T11:25:13.224Z,35.04
2023-04-10T11:26:08.634Z,35.22
2023-04-10T11:27:04.064Z,34.42
2023-04-10T11:27:59.579Z,34.17
2023-04-10T11:28:54.935Z,33.77
2023-04-10T11:29:50.268Z,34.59
2023-04-10T11:30:45.500Z,34.66
2023-04-10T11:31:41.179Z,34.55
2023-04-10T11:32:36.554Z,34.95
2023-04-10T11:33:31.883Z,34.64
2023-04-10T11:34:27.308Z,34.62
2023-04-10T11:35:22.680Z,34.90
2023-04-10T11:36:17.989Z,35.38
2023-04-10T11:37:13.622Z,34.52
2023-04-10T11:38:08.999Z,34.42
2023-04-10T11:39:04.428Z,33.53
2023-04-10T11:39:59.566Z,33.76
2023-04-10T11:40:54.952Z,33.42
2023-04-10T11:41:50.517Z,31.94
2023-04-10T11:42:45.875Z,31.89
2023-04-10T11:43:41.332Z,32.71
2023-04-10T11:44:36.697Z,32.78
2023-04-10T11:45:32.234Z,32.35
2023-04-10T11:46:27.803Z,32.55
2023-04-10T11:47:23.090Z,32.96
2023-04-10T11:48:18.573Z,33.39
2023-04-10T11:49:14.085Z,33.57
2023-04-10T11:50:09.338Z,33.38
2023-04-10T11:51:04.721Z,33.01
2023-04-10T11:52:00.219Z,33.20
2023-04-10T11:52:56.600Z,32.71
2023-04-10T11:53:51.384Z,32.83
2023-04-10T11:54:46.833Z,32.63
2023-04-10T11:55:42.167Z,32.13
2023-04-10T11:56:37.612Z,32.03
2023-04-10T11:57:32.970Z,31.84